Yona, Guam
Current Conditions -  °F | °C
As of 12:04 AM on Friday 31 Oct 2014 (Local Time) from PGUM Reporting Station
Light Rain Light Rain  
Wind Chill: 79°   Ceiling: 4400
Heat Index: 82°   Visibility: 10mi
Dew Point: 75°   Wind: 7mph
Humidity: 89%   Direction: 110°ESE
Pressure: 29.81"   Gusts: NA
Location:  13.41°N, 144.77°E
Report Text: PGUM 301404Z 11006KT 10SM -RA SCT009 SCT016 BKN044 26/24 A2981 RMK AO2 P0000
Loading
Personal Weather Stations






























Interactive Weather Map
Tropical Storm Tracking
New forecast layout! Learn more

10-Day Weather Forecast

Advertisements
Track Severe Weather on mobile